»·PEaware :: DAL2712 KLAX-KLAS

DAL2712 :: KLAX-KLAS

FLIGHT INFORMATION

Flight Status: Arrived
Operator:
Delta Air Lines
More flights by this operator :: More flights under this callsign
Pilot: Cody B. (17747)
Aircraft: BOEING 737-800
(B738)
More flights by this aircraft type
Origin: KLAX Los Angeles Intl
United States
Destination: KLAS McCarran Intl
United States
More flights between these airports :: More routes between these airports
Route: +OSHNN8 MISEN KEPEC6
File this flight plan on PilotEdge
Remarks:
Altitude:
(Current/Filed)
27,000ft
Speed:
(Current/Filed)
450kts
Departed: 13-Jan-18 11:20 AM
Arrived: 13-Jan-18 12:16 PM
Distance/Time
Traveled:
205nm/0:56
Distance/Time
To Go:
Arrived

Flight Plot

Page will automatically refresh every two minutes.

Flight plan parsing failed; only flown route is shown


Map Options




Map Legend


Flown Route
Filed Route
Departure Airport
Arrival Airport
Navaid (VOR, NDB)
Fix

Horizontal Profiles

Position Reports

Time Latitude Longitude Heading Altitude Ground
Speed
13-Jan-18 10:32 33.940651 -118.403793 262 119ft 0kts
13-Jan-18 10:33 33.940651 -118.403793 262 119ft 0kts
13-Jan-18 10:34 33.940651 -118.403793 262 119ft 0kts
13-Jan-18 10:35 33.940651 -118.403793 262 119ft 0kts
13-Jan-18 10:36 33.940651 -118.403793 262 119ft 0kts
13-Jan-18 10:37 33.940651 -118.403793 262 119ft 0kts
13-Jan-18 10:38 33.940651 -118.403793 262 119ft 0kts
13-Jan-18 10:39 33.940651 -118.403793 262 119ft 0kts
13-Jan-18 10:40 33.940651 -118.403793 262 119ft 0kts
13-Jan-18 10:41 33.940651 -118.403793 262 119ft 0kts
13-Jan-18 10:42 33.940651 -118.403793 262 119ft 0kts
13-Jan-18 10:43 33.940651 -118.403793 262 119ft 0kts
13-Jan-18 10:44 33.940651 -118.403793 262 119ft 0kts
13-Jan-18 10:45 33.940651 -118.403793 262 119ft 0kts
13-Jan-18 10:46 33.940651 -118.403793 262 119ft 0kts
13-Jan-18 10:47 33.940651 -118.403793 262 119ft 0kts
13-Jan-18 10:48 33.940651 -118.403793 262 119ft 0kts
13-Jan-18 10:49 33.940651 -118.403793 262 119ft 0kts
13-Jan-18 10:50 33.940651 -118.403793 262 119ft 0kts
13-Jan-18 10:51 33.940651 -118.403793 262 119ft 0kts
13-Jan-18 10:52 33.940651 -118.403793 262 119ft 0kts
13-Jan-18 10:53 33.940651 -118.403793 262 119ft 0kts
13-Jan-18 10:54 33.940651 -118.403793 262 119ft 0kts
13-Jan-18 10:55 33.940651 -118.403793 262 119ft 0kts
13-Jan-18 10:56 33.940651 -118.403793 262 119ft 0kts
13-Jan-18 10:57 33.940651 -118.403793 262 119ft 0kts
13-Jan-18 10:58 33.940651 -118.403793 262 119ft 0kts
13-Jan-18 10:59 33.940651 -118.403793 262 119ft 0kts
13-Jan-18 11:00 33.940651 -118.403793 262 119ft 0kts
13-Jan-18 11:01 33.940651 -118.403793 262 119ft 0kts
13-Jan-18 11:02 33.940651 -118.403793 262 119ft 0kts
13-Jan-18 11:03 33.940651 -118.403793 262 119ft 0kts
13-Jan-18 11:04 33.940651 -118.403793 262 119ft 0kts
13-Jan-18 11:05 33.940651 -118.403793 262 119ft 0kts
13-Jan-18 11:06 33.940651 -118.403793 262 119ft 0kts
13-Jan-18 11:07 33.940651 -118.403793 262 119ft 0kts
13-Jan-18 11:08 33.940668 -118.403627 262 119ft 1kts
13-Jan-18 11:09 33.941013 -118.403193 183 119ft 2kts
13-Jan-18 11:10 33.941130 -118.403203 172 119ft 0kts
13-Jan-18 11:11 33.941130 -118.403203 172 119ft 0kts
13-Jan-18 11:12 33.941130 -118.403203 172 119ft 0kts
13-Jan-18 11:13 33.941122 -118.403202 173 119ft 0kts
13-Jan-18 11:14 33.940586 -118.403127 173 119ft 6kts
13-Jan-18 11:15 33.940003 -118.403048 173 119ft 0kts
13-Jan-18 11:16 33.939976 -118.403045 173 119ft 0kts
13-Jan-18 11:17 33.939453 -118.402972 173 119ft 6kts
13-Jan-18 11:18 33.938703 -118.400719 83 117ft 12kts
13-Jan-18 11:19 33.939259 -118.395313 83 109ft 16kts
13-Jan-18 11:20 33.939794 -118.390036 83 103ft 15kts
13-Jan-18 11:21 33.940296 -118.385157 82 103ft 13kts
13-Jan-18 11:22 33.940706 -118.380725 107 99ft 1kts
13-Jan-18 11:23 33.940705 -118.380720 107 99ft 0kts
13-Jan-18 11:24 33.940643 -118.380566 119 99ft 1kts
13-Jan-18 11:25 33.939609 -118.382368 263 99ft 16kts
13-Jan-18 11:26 33.935708 -118.419638 262 1051ft 204kts
13-Jan-18 11:27 33.910447 -118.492696 230 4421ft 268kts
13-Jan-18 11:28 33.855833 -118.552960 194 5004ft 272kts
13-Jan-18 11:29 33.781493 -118.542245 168 4989ft 271kts
13-Jan-18 11:30 33.709263 -118.518950 142 5026ft 278kts
13-Jan-18 11:31 33.674302 -118.440078 110 5292ft 270kts
13-Jan-18 11:32 33.648514 -118.355516 108 5292ft 272kts
13-Jan-18 11:33 33.645038 -118.263076 89 8301ft 289kts
13-Jan-18 11:34 33.661444 -118.172895 39 10022ft 294kts
13-Jan-18 11:35 33.725267 -118.109557 36 13608ft 312kts
13-Jan-18 11:36 33.797889 -118.042615 35 14977ft 343kts
13-Jan-18 11:37 33.873619 -117.974346 34 14970ft 343kts
13-Jan-18 11:38 33.950469 -117.904645 35 17676ft 355kts
13-Jan-18 11:39 34.030083 -117.831718 35 20892ft 373kts
13-Jan-18 11:40 34.108630 -117.751148 49 23703ft 392kts
13-Jan-18 11:41 34.177539 -117.646944 48 26109ft 407kts
13-Jan-18 11:42 34.250022 -117.539653 46 27225ft 423kts
13-Jan-18 11:43 34.327099 -117.424193 50 27251ft 464kts
13-Jan-18 11:44 34.409337 -117.300468 50 27399ft 476kts
13-Jan-18 11:45 34.492411 -117.175705 50 27402ft 475kts
13-Jan-18 11:46 34.575713 -117.052051 49 27402ft 475kts
13-Jan-18 11:47 34.659927 -116.928901 49 27393ft 475kts
13-Jan-18 11:48 34.744216 -116.805470 49 27394ft 475kts
13-Jan-18 11:49 34.828445 -116.682296 49 27394ft 476kts
13-Jan-18 11:50 34.925527 -116.574736 36 27393ft 469kts
13-Jan-18 11:51 35.017745 -116.485886 37 26213ft 403kts
13-Jan-18 11:52 35.103974 -116.402103 39 24409ft 392kts
13-Jan-18 11:53 35.175697 -116.311771 45 24323ft 344kts
13-Jan-18 11:54 35.245151 -116.223607 45 24346ft 363kts
13-Jan-18 11:55 35.308250 -116.143648 44 23513ft 317kts
13-Jan-18 11:56 35.369260 -116.066424 43 21035ft 310kts
13-Jan-18 11:57 35.427585 -115.992689 42 18534ft 295kts
13-Jan-18 11:58 35.482423 -115.923385 42 16645ft 265kts
13-Jan-18 11:59 35.532463 -115.860269 41 15700ft 256kts
13-Jan-18 12:00 35.581927 -115.797897 41 14803ft 253kts
13-Jan-18 12:01 35.625044 -115.743696 42 14007ft 304kts
13-Jan-18 12:02 35.693471 -115.657124 43 13041ft 296kts
13-Jan-18 12:03 35.741497 -115.595747 41 13035ft 299kts
13-Jan-18 12:04 35.832538 -115.571870 1 13036ft 294kts
13-Jan-18 12:05 35.914100 -115.566835 1 13036ft 294kts
13-Jan-18 12:06 35.975522 -115.536184 47 12831ft 307kts
13-Jan-18 12:07 36.014221 -115.428431 65 11533ft 278kts
13-Jan-18 12:08 36.029932 -115.354327 92 10752ft 273kts
13-Jan-18 12:09 36.023022 -115.262983 93 9676ft 266kts
13-Jan-18 12:10 36.016520 -115.172802 93 8745ft 262kts
13-Jan-18 12:11 36.010488 -115.083949 93 8048ft 255kts
13-Jan-18 12:12 36.005569 -115.002481 92 8038ft 235kts
13-Jan-18 12:13 36.000725 -114.921847 92 8014ft 223kts
13-Jan-18 12:14 35.996897 -114.847911 78 6875ft 203kts
13-Jan-18 12:15 36.038307 -114.826422 348 6471ft 183kts
13-Jan-18 12:16 36.075532 -114.853922 274 6361ft 173kts
13-Jan-18 12:17 36.072587 -114.914946 269 5672ft 179kts
13-Jan-18 12:18 36.072719 -114.976430 272 4444ft 175kts
13-Jan-18 12:19 36.073458 -115.031507 271 3471ft 139kts
13-Jan-18 12:20 36.073571 -115.079122 270 2841ft 139kts
13-Jan-18 12:21 36.073706 -115.126602 267 2094ft 144kts
13-Jan-18 12:22 36.074280 -115.144970 296 2101ft 0kts
13-Jan-18 12:23 36.074280 -115.144970 296 2101ft 0kts
13-Jan-18 12:24 36.074569 -115.145686 297 2102ft 8kts
13-Jan-18 12:25 36.077604 -115.146773 324 2102ft 14kts
13-Jan-18 12:26 36.079620 -115.146737 22 2096ft 0kts
13-Jan-18 12:27 36.079620 -115.146737 22 2096ft 0kts
13-Jan-18 12:28 36.079620 -115.146737 22 2096ft 0kts
13-Jan-18 12:29 36.079620 -115.146737 22 2096ft 0kts
13-Jan-18 12:30 36.079620 -115.146737 22 2096ft 0kts
13-Jan-18 12:31 36.079620 -115.146737 22 2096ft 0kts
13-Jan-18 12:32 36.079620 -115.146737 22 2096ft 0kts
13-Jan-18 12:33 36.079620 -115.146737 22 2096ft 0kts
13-Jan-18 12:34 36.079620 -115.146737 22 2096ft 0kts
13-Jan-18 12:35 36.079620 -115.146737 22 2096ft 0kts
13-Jan-18 12:36 36.079620 -115.146737 22 2096ft 0kts
13-Jan-18 12:37 36.079620 -115.146737 22 2096ft 0kts

Navigation Log

Ident Type
Flight plan parsing failed, navigation log unavailable